sensor_id;sensor_type;location;lat;lon;timestamp;P1;durP1;ratioP1;P2;durP2;ratioP2
22648;SDS011;11491;41.942;24.220;2023-06-04T00:00:21;11.15;;;6.50;;
22648;SDS011;11491;41.942;24.220;2023-06-04T00:02:48;7.72;;;6.07;;
22648;SDS011;11491;41.942;24.220;2023-06-04T00:05:14;9.57;;;6.30;;
22648;SDS011;11491;41.942;24.220;2023-06-04T00:07:41;7.30;;;6.07;;
22648;SDS011;11491;41.942;24.220;2023-06-04T00:10:08;8.75;;;6.40;;
22648;SDS011;11491;41.942;24.220;2023-06-04T00:12:37;8.73;;;6.32;;
22648;SDS011;11491;41.942;24.220;2023-06-04T00:15:04;10.65;;;6.25;;
22648;SDS011;11491;41.942;24.220;2023-06-04T00:17:32;6.65;;;5.80;;
22648;SDS011;11491;41.942;24.220;2023-06-04T00:19:58;8.90;;;6.18;;
22648;SDS011;11491;41.942;24.220;2023-06-04T00:22:26;10.27;;;6.03;;
22648;SDS011;11491;41.942;24.220;2023-06-04T00:24:53;7.90;;;5.70;;
22648;SDS011;11491;41.942;24.220;2023-06-04T00:27:20;7.25;;;5.82;;
22648;SDS011;11491;41.942;24.220;2023-06-04T00:29:48;6.82;;;5.78;;
22648;SDS011;11491;41.942;24.220;2023-06-04T00:32:15;6.82;;;5.82;;
22648;SDS011;11491;41.942;24.220;2023-06-04T00:34:41;7.75;;;5.60;;
22648;SDS011;11491;41.942;24.220;2023-06-04T00:37:08;6.00;;;5.40;;
22648;SDS011;11491;41.942;24.220;2023-06-04T00:39:35;9.77;;;6.15;;
22648;SDS011;11491;41.942;24.220;2023-06-04T00:42:02;6.63;;;5.85;;
22648;SDS011;11491;41.942;24.220;2023-06-04T00:44:29;7.07;;;5.63;;
22648;SDS011;11491;41.942;24.220;2023-06-04T00:46:57;6.80;;;5.50;;
22648;SDS011;11491;41.942;24.220;2023-06-04T00:49:24;6.60;;;5.90;;
22648;SDS011;11491;41.942;24.220;2023-06-04T00:51:51;7.88;;;5.60;;
22648;SDS011;11491;41.942;24.220;2023-06-04T00:54:17;6.38;;;5.68;;
22648;SDS011;11491;41.942;24.220;2023-06-04T00:56:47;7.25;;;6.40;;
22648;SDS011;11491;41.942;24.220;2023-06-04T00:59:14;7.50;;;6.05;;
22648;SDS011;11491;41.942;24.220;2023-06-04T01:01:42;9.60;;;6.28;;
22648;SDS011;11491;41.942;24.220;2023-06-04T01:04:18;9.60;;;5.75;;
22648;SDS011;11491;41.942;24.220;2023-06-04T01:06:50;7.70;;;5.97;;
22648;SDS011;11491;41.942;24.220;2023-06-04T01:09:19;8.20;;;6.45;;
22648;SDS011;11491;41.942;24.220;2023-06-04T01:11:47;6.72;;;6.00;;
22648;SDS011;11491;41.942;24.220;2023-06-04T01:14:13;7.88;;;5.97;;
22648;SDS011;11491;41.942;24.220;2023-06-04T01:16:44;8.23;;;5.85;;
22648;SDS011;11491;41.942;24.220;2023-06-04T01:22:34;8.52;;;6.07;;
22648;SDS011;11491;41.942;24.220;2023-06-04T01:25:04;7.43;;;6.32;;
22648;SDS011;11491;41.942;24.220;2023-06-04T01:27:36;7.00;;;6.30;;
22648;SDS011;11491;41.942;24.220;2023-06-04T01:30:05;6.43;;;5.80;;
22648;SDS011;11491;41.942;24.220;2023-06-04T01:32:34;11.23;;;6.43;;
22648;SDS011;11491;41.942;24.220;2023-06-04T01:35:01;6.03;;;5.43;;
22648;SDS011;11491;41.942;24.220;2023-06-04T01:37:30;7.35;;;6.22;;
22648;SDS011;11491;41.942;24.220;2023-06-04T01:39:58;7.40;;;6.53;;
22648;SDS011;11491;41.942;24.220;2023-06-04T01:42:25;8.32;;;6.72;;
22648;SDS011;11491;41.942;24.220;2023-06-04T01:44:52;10.23;;;7.00;;
22648;SDS011;11491;41.942;24.220;2023-06-04T01:47:18;7.90;;;6.35;;
22648;SDS011;11491;41.942;24.220;2023-06-04T01:49:45;7.57;;;6.30;;
22648;SDS011;11491;41.942;24.220;2023-06-04T01:52:12;10.55;;;7.80;;
22648;SDS011;11491;41.942;24.220;2023-06-04T01:54:41;8.05;;;6.85;;
22648;SDS011;11491;41.942;24.220;2023-06-04T01:57:09;8.38;;;6.70;;
22648;SDS011;11491;41.942;24.220;2023-06-04T01:59:36;7.25;;;6.55;;
22648;SDS011;11491;41.942;24.220;2023-06-04T02:02:04;8.68;;;6.68;;
22648;SDS011;11491;41.942;24.220;2023-06-04T02:04:31;9.73;;;6.55;;
22648;SDS011;11491;41.942;24.220;2023-06-04T02:06:57;8.43;;;6.68;;
22648;SDS011;11491;41.942;24.220;2023-06-04T02:09:24;8.13;;;6.88;;
22648;SDS011;11491;41.942;24.220;2023-06-04T02:11:52;14.18;;;7.63;;
22648;SDS011;11491;41.942;24.220;2023-06-04T02:14:20;10.05;;;7.03;;
22648;SDS011;11491;41.942;24.220;2023-06-04T02:16:47;9.45;;;7.38;;
22648;SDS011;11491;41.942;24.220;2023-06-04T02:19:15;8.55;;;7.50;;
22648;SDS011;11491;41.942;24.220;2023-06-04T02:21:43;9.65;;;6.68;;
22648;SDS011;11491;41.942;24.220;2023-06-04T02:24:10;7.10;;;6.40;;
22648;SDS011;11491;41.942;24.220;2023-06-04T02:26:37;7.90;;;6.53;;
22648;SDS011;11491;41.942;24.220;2023-06-04T02:29:04;8.40;;;7.28;;
22648;SDS011;11491;41.942;24.220;2023-06-04T02:31:32;8.68;;;6.80;;
22648;SDS011;11491;41.942;24.220;2023-06-04T02:33:59;8.77;;;6.50;;
22648;SDS011;11491;41.942;24.220;2023-06-04T02:36:26;8.07;;;6.55;;
22648;SDS011;11491;41.942;24.220;2023-06-04T02:38:52;7.35;;;6.55;;
22648;SDS011;11491;41.942;24.220;2023-06-04T02:41:20;8.73;;;6.80;;
22648;SDS011;11491;41.942;24.220;2023-06-04T02:43:47;9.00;;;7.35;;
22648;SDS011;11491;41.942;24.220;2023-06-04T02:46:14;10.57;;;6.95;;
22648;SDS011;11491;41.942;24.220;2023-06-04T02:48:42;7.80;;;6.65;;
22648;SDS011;11491;41.942;24.220;2023-06-04T02:51:09;9.43;;;7.13;;
22648;SDS011;11491;41.942;24.220;2023-06-04T02:53:36;8.75;;;7.28;;
22648;SDS011;11491;41.942;24.220;2023-06-04T02:56:03;10.20;;;7.82;;
22648;SDS011;11491;41.942;24.220;2023-06-04T02:58:31;10.13;;;7.75;;
22648;SDS011;11491;41.942;24.220;2023-06-04T03:01:00;8.70;;;6.45;;
22648;SDS011;11491;41.942;24.220;2023-06-04T03:03:26;7.88;;;6.70;;
22648;SDS011;11491;41.942;24.220;2023-06-04T03:05:55;11.25;;;7.28;;
22648;SDS011;11491;41.942;24.220;2023-06-04T03:08:21;9.63;;;6.88;;
22648;SDS011;11491;41.942;24.220;2023-06-04T03:10:48;10.57;;;7.55;;
22648;SDS011;11491;41.942;24.220;2023-06-04T03:13:17;9.57;;;7.95;;
22648;SDS011;11491;41.942;24.220;2023-06-04T03:15:43;9.32;;;7.40;;
22648;SDS011;11491;41.942;24.220;2023-06-04T03:18:13;8.52;;;7.20;;
22648;SDS011;11491;41.942;24.220;2023-06-04T03:20:40;8.45;;;7.15;;
22648;SDS011;11491;41.942;24.220;2023-06-04T03:23:08;9.90;;;7.15;;
22648;SDS011;11491;41.942;24.220;2023-06-04T03:25:35;9.00;;;6.93;;
22648;SDS011;11491;41.942;24.220;2023-06-04T03:28:02;8.63;;;6.38;;
22648;SDS011;11491;41.942;24.220;2023-06-04T03:30:31;9.48;;;7.35;;
22648;SDS011;11491;41.942;24.220;2023-06-04T03:32:58;9.30;;;7.93;;
22648;SDS011;11491;41.942;24.220;2023-06-04T03:35:25;12.10;;;7.78;;
22648;SDS011;11491;41.942;24.220;2023-06-04T03:37:52;19.23;;;11.13;;
22648;SDS011;11491;41.942;24.220;2023-06-04T03:40:20;16.70;;;11.45;;
22648;SDS011;11491;41.942;24.220;2023-06-04T03:42:47;12.23;;;9.40;;
22648;SDS011;11491;41.942;24.220;2023-06-04T03:45:13;13.80;;;9.55;;
22648;SDS011;11491;41.942;24.220;2023-06-04T03:47:40;15.60;;;11.50;;
22648;SDS011;11491;41.942;24.220;2023-06-04T03:50:07;30.05;;;18.15;;
22648;SDS011;11491;41.942;24.220;2023-06-04T03:52:35;27.45;;;17.35;;
22648;SDS011;11491;41.942;24.220;2023-06-04T03:55:01;35.13;;;21.52;;
22648;SDS011;11491;41.942;24.220;2023-06-04T03:57:30;23.73;;;16.55;;
22648;SDS011;11491;41.942;24.220;2023-06-04T03:59:57;37.45;;;22.17;;
22648;SDS011;11491;41.942;24.220;2023-06-04T04:02:24;31.27;;;19.70;;
22648;SDS011;11491;41.942;24.220;2023-06-04T04:04:51;35.38;;;22.67;;
22648;SDS011;11491;41.942;24.220;2023-06-04T04:07:19;31.92;;;19.17;;
22648;SDS011;11491;41.942;24.220;2023-06-04T04:09:46;25.95;;;15.73;;
22648;SDS011;11491;41.942;24.220;2023-06-04T04:12:13;21.42;;;14.57;;
22648;SDS011;11491;41.942;24.220;2023-06-04T04:14:41;17.13;;;13.32;;
22648;SDS011;11491;41.942;24.220;2023-06-04T04:17:08;24.83;;;14.40;;
22648;SDS011;11491;41.942;24.220;2023-06-04T04:19:35;26.38;;;19.35;;
22648;SDS011;11491;41.942;24.220;2023-06-04T04:22:02;17.63;;;12.57;;
22648;SDS011;11491;41.942;24.220;2023-06-04T04:24:29;17.08;;;10.60;;
22648;SDS011;11491;41.942;24.220;2023-06-04T04:26:56;13.77;;;10.20;;
22648;SDS011;11491;41.942;24.220;2023-06-04T04:29:23;12.75;;;10.52;;
22648;SDS011;11491;41.942;24.220;2023-06-04T04:31:52;9.93;;;8.88;;
22648;SDS011;11491;41.942;24.220;2023-06-04T04:34:21;15.75;;;9.77;;
22648;SDS011;11491;41.942;24.220;2023-06-04T04:36:48;15.20;;;12.65;;
22648;SDS011;11491;41.942;24.220;2023-06-04T04:39:17;14.95;;;11.85;;
22648;SDS011;11491;41.942;24.220;2023-06-04T04:41:44;15.70;;;12.52;;
22648;SDS011;11491;41.942;24.220;2023-06-04T04:44:11;14.73;;;11.13;;
22648;SDS011;11491;41.942;24.220;2023-06-04T04:46:37;11.32;;;9.48;;
22648;SDS011;11491;41.942;24.220;2023-06-04T04:49:06;14.52;;;11.52;;
22648;SDS011;11491;41.942;24.220;2023-06-04T04:51:32;16.60;;;13.35;;
22648;SDS011;11491;41.942;24.220;2023-06-04T04:53:59;19.58;;;15.43;;
22648;SDS011;11491;41.942;24.220;2023-06-04T04:56:27;18.52;;;13.70;;
22648;SDS011;11491;41.942;24.220;2023-06-04T04:59:09;14.65;;;12.75;;
22648;SDS011;11491;41.942;24.220;2023-06-04T05:01:37;14.38;;;12.70;;
22648;SDS011;11491;41.942;24.220;2023-06-04T05:07:35;9.32;;;8.30;;
22648;SDS011;11491;41.942;24.220;2023-06-04T05:10:06;10.52;;;8.70;;
22648;SDS011;11491;41.942;24.220;2023-06-04T05:12:38;9.65;;;8.73;;
22648;SDS011;11491;41.942;24.220;2023-06-04T05:15:08;9.00;;;8.07;;
22648;SDS011;11491;41.942;24.220;2023-06-04T05:17:37;10.63;;;9.50;;
22648;SDS011;11491;41.942;24.220;2023-06-04T05:20:05;8.77;;;7.53;;
22648;SDS011;11491;41.942;24.220;2023-06-04T05:22:38;9.23;;;7.18;;
22648;SDS011;11491;41.942;24.220;2023-06-04T05:25:05;7.28;;;6.57;;
22648;SDS011;11491;41.942;24.220;2023-06-04T05:27:33;8.75;;;7.30;;
22648;SDS011;11491;41.942;24.220;2023-06-04T05:30:00;8.30;;;6.68;;
22648;SDS011;11491;41.942;24.220;2023-06-04T05:32:29;10.75;;;8.75;;
22648;SDS011;11491;41.942;24.220;2023-06-04T05:34:57;11.50;;;8.55;;
22648;SDS011;11491;41.942;24.220;2023-06-04T05:37:25;117.03;;;69.10;;
22648;SDS011;11491;41.942;24.220;2023-06-04T05:40:05;49.50;;;36.22;;
22648;SDS011;11491;41.942;24.220;2023-06-04T05:42:34;13.68;;;9.98;;
22648;SDS011;11491;41.942;24.220;2023-06-04T05:45:02;14.80;;;10.13;;
22648;SDS011;11491;41.942;24.220;2023-06-04T05:47:29;10.25;;;8.52;;
22648;SDS011;11491;41.942;24.220;2023-06-04T05:49:56;12.00;;;10.80;;
22648;SDS011;11491;41.942;24.220;2023-06-04T05:52:23;13.40;;;9.45;;
22648;SDS011;11491;41.942;24.220;2023-06-04T05:54:50;14.00;;;12.43;;
22648;SDS011;11491;41.942;24.220;2023-06-04T05:57:19;9.35;;;7.28;;
22648;SDS011;11491;41.942;24.220;2023-06-04T05:59:46;9.77;;;8.77;;
22648;SDS011;11491;41.942;24.220;2023-06-04T06:02:13;12.70;;;11.40;;
22648;SDS011;11491;41.942;24.220;2023-06-04T06:04:40;46.80;;;30.85;;
22648;SDS011;11491;41.942;24.220;2023-06-04T06:07:08;19.20;;;14.73;;
22648;SDS011;11491;41.942;24.220;2023-06-04T06:09:35;88.55;;;72.88;;
22648;SDS011;11491;41.942;24.220;2023-06-04T06:12:02;16.73;;;14.70;;
22648;SDS011;11491;41.942;24.220;2023-06-04T06:14:32;11.93;;;9.95;;
22648;SDS011;11491;41.942;24.220;2023-06-04T06:16:58;8.85;;;7.50;;
22648;SDS011;11491;41.942;24.220;2023-06-04T06:19:28;8.48;;;7.57;;
22648;SDS011;11491;41.942;24.220;2023-06-04T06:21:55;63.15;;;39.15;;
22648;SDS011;11491;41.942;24.220;2023-06-04T06:24:23;232.07;;;160.55;;
22648;SDS011;11491;41.942;24.220;2023-06-04T06:26:50;60.35;;;46.78;;
22648;SDS011;11491;41.942;24.220;2023-06-04T06:29:17;16.08;;;13.82;;
22648;SDS011;11491;41.942;24.220;2023-06-04T06:31:45;41.13;;;36.92;;
22648;SDS011;11491;41.942;24.220;2023-06-04T06:34:12;13.63;;;12.20;;
22648;SDS011;11491;41.942;24.220;2023-06-04T06:36:39;12.60;;;11.38;;
22648;SDS011;11491;41.942;24.220;2023-06-04T06:39:05;8.27;;;7.47;;
22648;SDS011;11491;41.942;24.220;2023-06-04T06:41:32;8.77;;;7.88;;
22648;SDS011;11491;41.942;24.220;2023-06-04T06:43:59;8.65;;;7.32;;
22648;SDS011;11491;41.942;24.220;2023-06-04T06:46:26;12.95;;;8.35;;
22648;SDS011;11491;41.942;24.220;2023-06-04T06:48:54;11.32;;;10.18;;
22648;SDS011;11491;41.942;24.220;2023-06-04T06:51:20;15.68;;;11.38;;
22648;SDS011;11491;41.942;24.220;2023-06-04T06:53:48;24.90;;;18.48;;
22648;SDS011;11491;41.942;24.220;2023-06-04T06:56:15;15.02;;;13.52;;
22648;SDS011;11491;41.942;24.220;2023-06-04T06:58:43;14.13;;;10.60;;
22648;SDS011;11491;41.942;24.220;2023-06-04T07:01:10;11.15;;;9.23;;
22648;SDS011;11491;41.942;24.220;2023-06-04T07:03:37;15.35;;;13.63;;
22648;SDS011;11491;41.942;24.220;2023-06-04T07:06:06;11.40;;;10.00;;
22648;SDS011;11491;41.942;24.220;2023-06-04T07:08:33;17.67;;;14.23;;
22648;SDS011;11491;41.942;24.220;2023-06-04T07:11:00;35.20;;;31.70;;
22648;SDS011;11491;41.942;24.220;2023-06-04T07:13:28;17.25;;;14.00;;
22648;SDS011;11491;41.942;24.220;2023-06-04T07:15:57;17.60;;;14.77;;
22648;SDS011;11491;41.942;24.220;2023-06-04T07:18:24;18.65;;;15.88;;
22648;SDS011;11491;41.942;24.220;2023-06-04T07:20:50;18.80;;;15.52;;
22648;SDS011;11491;41.942;24.220;2023-06-04T07:23:19;27.15;;;17.23;;
22648;SDS011;11491;41.942;24.220;2023-06-04T07:25:46;18.65;;;15.20;;
22648;SDS011;11491;41.942;24.220;2023-06-04T07:28:12;15.27;;;13.05;;
22648;SDS011;11491;41.942;24.220;2023-06-04T07:30:40;16.55;;;14.48;;
22648;SDS011;11491;41.942;24.220;2023-06-04T07:33:07;36.50;;;30.02;;
22648;SDS011;11491;41.942;24.220;2023-06-04T07:35:33;55.55;;;38.10;;
22648;SDS011;11491;41.942;24.220;2023-06-04T07:38:02;30.55;;;26.00;;
22648;SDS011;11491;41.942;24.220;2023-06-04T07:40:33;22.17;;;17.02;;
22648;SDS011;11491;41.942;24.220;2023-06-04T07:43:00;22.00;;;19.10;;
22648;SDS011;11491;41.942;24.220;2023-06-04T07:45:27;23.50;;;18.55;;
22648;SDS011;11491;41.942;24.220;2023-06-04T07:47:54;21.88;;;19.15;;
22648;SDS011;11491;41.942;24.220;2023-06-04T07:50:23;23.60;;;17.77;;
22648;SDS011;11491;41.942;24.220;2023-06-04T07:52:52;22.65;;;19.90;;
22648;SDS011;11491;41.942;24.220;2023-06-04T07:55:20;21.95;;;18.48;;
22648;SDS011;11491;41.942;24.220;2023-06-04T07:57:48;23.60;;;19.92;;
22648;SDS011;11491;41.942;24.220;2023-06-04T08:00:15;23.65;;;20.77;;
22648;SDS011;11491;41.942;24.220;2023-06-04T08:02:42;24.80;;;21.35;;
22648;SDS011;11491;41.942;24.220;2023-06-04T08:05:09;25.38;;;22.02;;
22648;SDS011;11491;41.942;24.220;2023-06-04T08:07:38;25.60;;;21.98;;
22648;SDS011;11491;41.942;24.220;2023-06-04T08:10:05;42.75;;;33.13;;
22648;SDS011;11491;41.942;24.220;2023-06-04T08:12:33;69.43;;;46.10;;
22648;SDS011;11491;41.942;24.220;2023-06-04T08:15:04;41.53;;;30.77;;
22648;SDS011;11491;41.942;24.220;2023-06-04T08:17:32;34.97;;;29.98;;
22648;SDS011;11491;41.942;24.220;2023-06-04T08:19:59;27.58;;;24.60;;
22648;SDS011;11491;41.942;24.220;2023-06-04T08:22:26;25.85;;;23.20;;
22648;SDS011;11491;41.942;24.220;2023-06-04T08:24:54;32.17;;;28.73;;
22648;SDS011;11491;41.942;24.220;2023-06-04T08:27:21;31.77;;;27.67;;
22648;SDS011;11491;41.942;24.220;2023-06-04T08:29:48;36.25;;;31.65;;
22648;SDS011;11491;41.942;24.220;2023-06-04T08:32:16;39.05;;;31.73;;
22648;SDS011;11491;41.942;24.220;2023-06-04T08:34:43;46.72;;;40.88;;
22648;SDS011;11491;41.942;24.220;2023-06-04T08:37:09;43.67;;;37.15;;
22648;SDS011;11491;41.942;24.220;2023-06-04T08:39:37;48.63;;;42.60;;
22648;SDS011;11491;41.942;24.220;2023-06-04T08:42:04;37.80;;;31.77;;
22648;SDS011;11491;41.942;24.220;2023-06-04T08:44:35;36.15;;;27.90;;
22648;SDS011;11491;41.942;24.220;2023-06-04T08:47:04;38.97;;;32.25;;
22648;SDS011;11491;41.942;24.220;2023-06-04T08:49:34;40.00;;;31.95;;
22648;SDS011;11491;41.942;24.220;2023-06-04T08:52:02;51.28;;;30.88;;
22648;SDS011;11491;41.942;24.220;2023-06-04T08:54:31;42.88;;;32.95;;
22648;SDS011;11491;41.942;24.220;2023-06-04T08:57:00;48.92;;;38.63;;
22648;SDS011;11491;41.942;24.220;2023-06-04T08:59:27;55.15;;;46.38;;
22648;SDS011;11491;41.942;24.220;2023-06-04T09:02:08;52.42;;;40.50;;
22648;SDS011;11491;41.942;24.220;2023-06-04T09:04:38;45.75;;;37.05;;
22648;SDS011;11491;41.942;24.220;2023-06-04T09:07:08;56.60;;;44.83;;
22648;SDS011;11491;41.942;24.220;2023-06-04T09:09:57;54.13;;;41.38;;
22648;SDS011;11491;41.942;24.220;2023-06-04T09:12:29;57.85;;;42.95;;
22648;SDS011;11491;41.942;24.220;2023-06-04T09:15:21;55.15;;;39.67;;
22648;SDS011;11491;41.942;24.220;2023-06-04T09:18:30;52.85;;;38.15;;
22648;SDS011;11491;41.942;24.220;2023-06-04T09:40:43;38.85;;;31.23;;
22648;SDS011;11491;41.942;24.220;2023-06-04T10:00:44;36.45;;;28.35;;
22648;SDS011;11491;41.942;24.220;2023-06-04T10:03:13;38.63;;;30.35;;
22648;SDS011;11491;41.942;24.220;2023-06-04T10:05:44;45.00;;;33.10;;
22648;SDS011;11491;41.942;24.220;2023-06-04T10:08:11;37.80;;;30.55;;
22648;SDS011;11491;41.942;24.220;2023-06-04T10:10:43;39.72;;;31.58;;
22648;SDS011;11491;41.942;24.220;2023-06-04T10:13:14;37.75;;;29.05;;
22648;SDS011;11491;41.942;24.220;2023-06-04T10:15:44;40.92;;;30.83;;
22648;SDS011;11491;41.942;24.220;2023-06-04T10:18:12;53.50;;;40.72;;
22648;SDS011;11491;41.942;24.220;2023-06-04T10:20:40;57.67;;;43.17;;
22648;SDS011;11491;41.942;24.220;2023-06-04T10:23:07;41.75;;;32.38;;
22648;SDS011;11491;41.942;24.220;2023-06-04T10:25:34;38.53;;;30.45;;
22648;SDS011;11491;41.942;24.220;2023-06-04T10:28:01;45.35;;;34.85;;
22648;SDS011;11491;41.942;24.220;2023-06-04T10:30:29;54.78;;;40.20;;
22648;SDS011;11491;41.942;24.220;2023-06-04T10:32:57;42.95;;;35.60;;
22648;SDS011;11491;41.942;24.220;2023-06-04T10:35:30;41.20;;;33.72;;
22648;SDS011;11491;41.942;24.220;2023-06-04T10:38:05;49.30;;;35.88;;
22648;SDS011;11491;41.942;24.220;2023-06-04T10:40:33;61.85;;;47.42;;
22648;SDS011;11491;41.942;24.220;2023-06-04T10:43:04;54.88;;;43.63;;
22648;SDS011;11491;41.942;24.220;2023-06-04T10:45:31;49.58;;;41.15;;
22648;SDS011;11491;41.942;24.220;2023-06-04T10:48:03;47.63;;;38.35;;
22648;SDS011;11491;41.942;24.220;2023-06-04T10:50:31;46.63;;;36.53;;
22648;SDS011;11491;41.942;24.220;2023-06-04T10:52:59;54.22;;;43.05;;
22648;SDS011;11491;41.942;24.220;2023-06-04T10:55:28;62.75;;;47.38;;
22648;SDS011;11491;41.942;24.220;2023-06-04T10:57:55;34.90;;;29.95;;
22648;SDS011;11491;41.942;24.220;2023-06-04T11:00:33;49.53;;;36.97;;
22648;SDS011;11491;41.942;24.220;2023-06-04T11:03:02;46.50;;;34.38;;
22648;SDS011;11491;41.942;24.220;2023-06-04T11:05:34;43.53;;;32.70;;
22648;SDS011;11491;41.942;24.220;2023-06-04T11:08:01;34.92;;;27.88;;
22648;SDS011;11491;41.942;24.220;2023-06-04T11:10:31;30.42;;;26.02;;
22648;SDS011;11491;41.942;24.220;2023-06-04T11:12:59;34.75;;;28.23;;
22648;SDS011;11491;41.942;24.220;2023-06-04T11:15:26;27.58;;;23.38;;
22648;SDS011;11491;41.942;24.220;2023-06-04T11:17:53;30.83;;;26.02;;
22648;SDS011;11491;41.942;24.220;2023-06-04T11:20:24;47.85;;;34.63;;
22648;SDS011;11491;41.942;24.220;2023-06-04T11:22:52;31.67;;;24.98;;
22648;SDS011;11491;41.942;24.220;2023-06-04T11:25:21;28.77;;;24.58;;
22648;SDS011;11491;41.942;24.220;2023-06-04T11:27:47;35.13;;;27.75;;
22648;SDS011;11491;41.942;24.220;2023-06-04T11:30:15;28.88;;;25.48;;
22648;SDS011;11491;41.942;24.220;2023-06-04T11:32:42;32.97;;;28.05;;
22648;SDS011;11491;41.942;24.220;2023-06-04T11:35:09;28.90;;;24.40;;
22648;SDS011;11491;41.942;24.220;2023-06-04T11:37:38;32.75;;;27.30;;
22648;SDS011;11491;41.942;24.220;2023-06-04T11:40:15;26.75;;;22.52;;
22648;SDS011;11491;41.942;24.220;2023-06-04T11:42:43;30.48;;;27.02;;
22648;SDS011;11491;41.942;24.220;2023-06-04T11:45:11;33.17;;;27.52;;
22648;SDS011;11491;41.942;24.220;2023-06-04T11:47:39;30.90;;;27.65;;
22648;SDS011;11491;41.942;24.220;2023-06-04T12:50:34;27.00;;;24.23;;
22648;SDS011;11491;41.942;24.220;2023-06-04T12:53:01;24.95;;;22.25;;
22648;SDS011;11491;41.942;24.220;2023-06-04T12:58:04;28.88;;;26.02;;
22648;SDS011;11491;41.942;24.220;2023-06-04T13:00:36;31.15;;;27.38;;
22648;SDS011;11491;41.942;24.220;2023-06-04T13:07:28;23.48;;;20.92;;
22648;SDS011;11491;41.942;24.220;2023-06-04T13:10:13;26.23;;;23.63;;
22648;SDS011;11491;41.942;24.220;2023-06-04T13:12:41;31.50;;;27.73;;
22648;SDS011;11491;41.942;24.220;2023-06-04T13:15:17;29.60;;;26.17;;
22648;SDS011;11491;41.942;24.220;2023-06-04T13:17:47;24.67;;;22.17;;
22648;SDS011;11491;41.942;24.220;2023-06-04T13:20:24;25.63;;;22.92;;
22648;SDS011;11491;41.942;24.220;2023-06-04T13:23:07;24.60;;;21.85;;
22648;SDS011;11491;41.942;24.220;2023-06-04T13:25:34;22.67;;;20.42;;
22648;SDS011;11491;41.942;24.220;2023-06-04T13:28:02;26.13;;;22.33;;
22648;SDS011;11491;41.942;24.220;2023-06-04T13:30:29;24.80;;;22.25;;
22648;SDS011;11491;41.942;24.220;2023-06-04T13:32:56;24.10;;;21.55;;
22648;SDS011;11491;41.942;24.220;2023-06-04T13:35:24;26.40;;;23.65;;
22648;SDS011;11491;41.942;24.220;2023-06-04T13:37:51;30.13;;;23.13;;
22648;SDS011;11491;41.942;24.220;2023-06-04T13:40:19;36.50;;;32.70;;
22648;SDS011;11491;41.942;24.220;2023-06-04T13:42:45;26.90;;;23.60;;
22648;SDS011;11491;41.942;24.220;2023-06-04T13:45:12;24.05;;;21.45;;
22648;SDS011;11491;41.942;24.220;2023-06-04T13:47:40;20.33;;;18.35;;
22648;SDS011;11491;41.942;24.220;2023-06-04T13:50:06;24.95;;;22.38;;
22648;SDS011;11491;41.942;24.220;2023-06-04T13:52:33;20.45;;;18.52;;
22648;SDS011;11491;41.942;24.220;2023-06-04T13:55:00;19.25;;;17.25;;
22648;SDS011;11491;41.942;24.220;2023-06-04T13:57:28;18.92;;;16.92;;
22648;SDS011;11491;41.942;24.220;2023-06-04T13:59:55;18.05;;;16.35;;
22648;SDS011;11491;41.942;24.220;2023-06-04T14:02:22;31.23;;;28.23;;
22648;SDS011;11491;41.942;24.220;2023-06-04T14:04:49;18.40;;;16.50;;
22648;SDS011;11491;41.942;24.220;2023-06-04T14:07:16;21.70;;;19.52;;
22648;SDS011;11491;41.942;24.220;2023-06-04T14:09:43;22.67;;;20.27;;
22648;SDS011;11491;41.942;24.220;2023-06-04T14:12:09;22.85;;;20.40;;
22648;SDS011;11491;41.942;24.220;2023-06-04T14:14:37;21.10;;;19.25;;
22648;SDS011;11491;41.942;24.220;2023-06-04T14:17:04;19.35;;;17.52;;
22648;SDS011;11491;41.942;24.220;2023-06-04T14:19:32;18.58;;;16.65;;
22648;SDS011;11491;41.942;24.220;2023-06-04T14:21:59;19.88;;;17.88;;
22648;SDS011;11491;41.942;24.220;2023-06-04T14:24:25;19.67;;;17.73;;
22648;SDS011;11491;41.942;24.220;2023-06-04T14:26:52;20.83;;;18.77;;
22648;SDS011;11491;41.942;24.220;2023-06-04T14:29:19;20.80;;;18.60;;
22648;SDS011;11491;41.942;24.220;2023-06-04T14:31:47;20.85;;;17.15;;
22648;SDS011;11491;41.942;24.220;2023-06-04T14:34:14;19.77;;;16.38;;
22648;SDS011;11491;41.942;24.220;2023-06-04T14:36:41;13.60;;;11.90;;
22648;SDS011;11491;41.942;24.220;2023-06-04T14:39:08;10.50;;;9.50;;
22648;SDS011;11491;41.942;24.220;2023-06-04T14:41:35;9.30;;;8.25;;
22648;SDS011;11491;41.942;24.220;2023-06-04T14:44:01;8.18;;;7.38;;
22648;SDS011;11491;41.942;24.220;2023-06-04T14:46:28;8.10;;;7.30;;
22648;SDS011;11491;41.942;24.220;2023-06-04T14:48:56;8.05;;;7.25;;
22648;SDS011;11491;41.942;24.220;2023-06-04T14:51:23;9.10;;;8.20;;
22648;SDS011;11491;41.942;24.220;2023-06-04T14:53:50;9.60;;;8.20;;
22648;SDS011;11491;41.942;24.220;2023-06-04T14:56:16;8.35;;;7.55;;
22648;SDS011;11491;41.942;24.220;2023-06-04T14:58:43;8.40;;;7.60;;
22648;SDS011;11491;41.942;24.220;2023-06-04T15:01:10;8.18;;;7.30;;
22648;SDS011;11491;41.942;24.220;2023-06-04T15:03:37;8.50;;;7.70;;
22648;SDS011;11491;41.942;24.220;2023-06-04T15:06:06;9.93;;;8.93;;
22648;SDS011;11491;41.942;24.220;2023-06-04T15:08:33;11.13;;;10.02;;
22648;SDS011;11491;41.942;24.220;2023-06-04T15:11:00;11.02;;;7.95;;
22648;SDS011;11491;41.942;24.220;2023-06-04T15:13:26;12.23;;;7.95;;
22648;SDS011;11491;41.942;24.220;2023-06-04T15:15:53;8.63;;;7.82;;
22648;SDS011;11491;41.942;24.220;2023-06-04T15:18:20;9.32;;;8.43;;
22648;SDS011;11491;41.942;24.220;2023-06-04T15:20:46;9.10;;;8.20;;
22648;SDS011;11491;41.942;24.220;2023-06-04T15:23:15;8.15;;;7.30;;
22648;SDS011;11491;41.942;24.220;2023-06-04T15:25:43;11.00;;;9.90;;
22648;SDS011;11491;41.942;24.220;2023-06-04T15:28:10;15.23;;;12.63;;
22648;SDS011;11491;41.942;24.220;2023-06-04T15:30:36;14.90;;;13.23;;
22648;SDS011;11491;41.942;24.220;2023-06-04T15:33:03;14.15;;;12.52;;
22648;SDS011;11491;41.942;24.220;2023-06-04T15:35:30;15.52;;;14.05;;
22648;SDS011;11491;41.942;24.220;2023-06-04T15:37:56;18.02;;;14.73;;
22648;SDS011;11491;41.942;24.220;2023-06-04T15:40:24;18.65;;;15.57;;
22648;SDS011;11491;41.942;24.220;2023-06-04T15:42:51;16.27;;;14.25;;
22648;SDS011;11491;41.942;24.220;2023-06-04T15:45:18;12.45;;;11.23;;
22648;SDS011;11491;41.942;24.220;2023-06-04T15:47:49;10.40;;;9.40;;
22648;SDS011;11491;41.942;24.220;2023-06-04T15:50:16;22.67;;;17.77;;
22648;SDS011;11491;41.942;24.220;2023-06-04T15:52:42;17.27;;;15.30;;
22648;SDS011;11491;41.942;24.220;2023-06-04T15:55:10;21.98;;;16.35;;
22648;SDS011;11491;41.942;24.220;2023-06-04T15:57:38;18.25;;;16.38;;
22648;SDS011;11491;41.942;24.220;2023-06-04T16:00:06;21.27;;;19.17;;
22648;SDS011;11491;41.942;24.220;2023-06-04T16:02:34;25.23;;;21.75;;
22648;SDS011;11491;41.942;24.220;2023-06-04T16:05:01;19.95;;;17.15;;
22648;SDS011;11491;41.942;24.220;2023-06-04T16:07:28;18.52;;;16.75;;
22648;SDS011;11491;41.942;24.220;2023-06-04T16:09:55;17.83;;;15.23;;
22648;SDS011;11491;41.942;24.220;2023-06-04T16:12:22;18.00;;;16.10;;
22648;SDS011;11491;41.942;24.220;2023-06-04T16:14:50;19.42;;;16.80;;